Time;durP1;ratioP1;P1;durP2;ratioP2;P2;SDS_P1;SDS_P2;PMS_P1;PMS_P2;Temp;Humidity;BMP_temperature;BMP_pressure;BME280_temperature;BME280_humidity;BME280_pressure;Samples;Min_cycle;Max_cycle;Signal;HPM_P1;HPM_P2
2023/05/14 00:02:27;;;;;;;12.27;6.38;;;;;;;12.07;100.00;102108.28;5011071;28;20056;-79
2023/05/14 00:04:55;;;;;;;11.25;7.03;;;;;;;12.06;100.00;102106.50;4996989;28;20061;-79
2023/05/14 00:07:29;;;;;;;18.40;6.38;;;;;;;12.05;100.00;102110.00;4974706;28;20060;-78
2023/05/14 00:09:57;;;;;;;15.57;6.57;;;;;;;12.03;100.00;102102.06;4999740;28;20058;-79
2023/05/14 00:12:25;;;;;;;9.95;5.38;;;;;;;12.02;100.00;102097.66;4994916;28;20423;-78
2023/05/14 00:14:53;;;;;;;17.00;6.80;;;;;;;12.03;100.00;102106.47;4988927;28;20567;-79
2023/05/14 00:17:21;;;;;;;12.07;5.93;;;;;;;12.01;100.00;102103.78;4979553;28;20056;-79
2023/05/14 00:19:48;;;;;;;11.85;5.70;;;;;;;12.01;100.00;102105.53;5014911;28;20045;-79
2023/05/14 00:22:15;;;;;;;10.35;5.70;;;;;;;12.00;100.00;102101.09;4993022;28;20064;-79
2023/05/14 00:24:43;;;;;;;13.48;6.55;;;;;;;11.99;100.00;102096.72;5008449;28;20038;-78
2023/05/14 00:27:10;;;;;;;10.88;5.95;;;;;;;11.96;100.00;102092.25;4967043;28;20050;-79
2023/05/14 00:29:39;;;;;;;8.38;5.18;;;;;;;11.96;100.00;102083.44;4985313;28;20061;-79
2023/05/14 00:32:07;;;;;;;12.75;5.88;;;;;;;11.96;100.00;102089.59;4959818;28;20041;-79
2023/05/14 00:34:35;;;;;;;12.95;5.70;;;;;;;11.95;100.00;102087.84;5014252;28;20069;-78
2023/05/14 00:37:02;;;;;;;12.55;6.72;;;;;;;11.95;100.00;102085.19;5006697;28;20045;-78
2023/05/14 00:39:30;;;;;;;9.80;5.78;;;;;;;11.95;100.00;102089.59;4997677;28;20049;-78
2023/05/14 00:41:57;;;;;;;14.65;5.43;;;;;;;11.94;100.00;102077.25;5006171;28;20068;-78
2023/05/14 00:44:25;;;;;;;11.20;6.00;;;;;;;11.93;100.00;102079.00;5011823;28;20057;-78
2023/05/14 00:46:53;;;;;;;11.43;6.38;;;;;;;11.90;100.00;102069.25;4990600;28;20085;-77
2023/05/14 00:49:24;;;;;;;9.20;6.22;;;;;;;11.89;100.00;102069.22;4961269;28;20049;-77
2023/05/14 00:51:52;;;;;;;9.63;6.07;;;;;;;11.87;100.00;102065.63;5000621;28;20061;-78
2023/05/14 00:54:20;;;;;;;9.07;6.00;;;;;;;11.85;100.00;102063.00;4998022;28;20533;-78
2023/05/14 00:56:50;;;;;;;9.52;6.20;;;;;;;11.86;100.00;102055.94;5030450;28;20045;-80
2023/05/14 00:59:17;;;;;;;16.77;6.35;;;;;;;11.84;100.00;102053.28;5014855;28;20054;-79
2023/05/14 01:01:45;;;;;;;15.05;7.28;;;;;;;11.85;100.00;102059.44;5012188;28;20049;-78
2023/05/14 01:04:12;;;;;;;14.70;6.45;;;;;;;11.85;100.00;102060.34;4957317;28;20058;-78
2023/05/14 01:07:03;;;;;;;13.43;7.72;;;;;;;11.85;100.00;102064.72;4994934;28;20056;-78
2023/05/14 01:09:52;;;;;;;9.15;6.18;;;;;;;11.84;100.00;102060.31;5041815;28;20052;-78
2023/05/14 01:12:32;;;;;;;11.63;7.20;;;;;;;11.84;100.00;102052.38;5015971;28;20044;-80
2023/05/14 01:15:11;;;;;;;11.43;6.63;;;;;;;11.84;100.00;102055.03;5011806;28;20053;-78
2023/05/14 01:17:45;;;;;;;12.98;7.47;;;;;;;11.84;100.00;102057.69;5010708;28;20037;-78
2023/05/14 01:20:14;;;;;;;12.23;7.30;;;;;;;11.83;100.00;102047.97;4968417;28;20050;-78
2023/05/14 01:22:41;;;;;;;15.02;7.50;;;;;;;11.84;100.00;102042.72;5008646;28;20061;-78
2023/05/14 01:25:09;;;;;;;15.20;7.90;;;;;;;11.85;100.00;102046.22;4990930;28;20045;-78
2023/05/14 01:27:56;;;;;;;16.42;7.07;;;;;;;11.85;100.00;102039.22;5035922;28;20045;-79
2023/05/14 01:30:30;;;;;;;13.93;7.63;;;;;;;11.85;100.00;102038.31;5023569;28;20045;-79
2023/05/14 01:33:02;;;;;;;10.93;7.38;;;;;;;11.83;100.00;102035.66;5036089;28;20725;-79
2023/05/14 01:35:30;;;;;;;16.25;7.28;;;;;;;11.83;100.00;102034.75;4989002;28;20048;-79
2023/05/14 01:38:00;;;;;;;11.95;7.72;;;;;;;11.80;100.00;102034.72;5006464;28;20431;-79
2023/05/14 01:40:29;;;;;;;12.50;7.53;;;;;;;11.80;100.00;102032.97;5005838;28;20049;-80
2023/05/14 01:42:56;;;;;;;16.40;8.00;;;;;;;11.79;100.00;102031.16;5015865;28;20537;-79
2023/05/14 01:45:24;;;;;;;16.50;8.00;;;;;;;11.79;100.00;102036.44;4996721;28;20050;-79
2023/05/14 01:47:52;;;;;;;14.13;8.63;;;;;;;11.77;100.00;102035.53;5022387;28;20042;-79
2023/05/14 01:50:20;;;;;;;16.75;8.80;;;;;;;11.74;100.00;102034.59;5005109;28;20049;-79
2023/05/14 01:52:48;;;;;;;16.92;8.93;;;;;;;11.73;100.00;102022.25;4966410;28;20042;-79
2023/05/14 01:55:17;;;;;;;13.48;8.20;;;;;;;11.68;100.00;102027.44;5000838;28;20045;-79
2023/05/14 01:57:44;;;;;;;16.02;8.20;;;;;;;11.68;100.00;102022.16;5013948;28;20094;-78
2023/05/14 02:00:12;;;;;;;16.10;9.13;;;;;;;11.66;100.00;102022.16;4999549;28;20160;-78
2023/05/14 02:02:42;;;;;;;;;;;;;;;11.64;100.00;102018.59;4982618;28;20495;-78
2023/05/14 02:05:12;;;;;;;15.70;8.07;;;;;;;11.63;100.00;102024.75;5030331;28;19921;-79
2023/05/14 02:07:40;;;;;;;12.85;8.30;;;;;;;11.62;100.00;102024.72;4971556;28;20056;-78
2023/05/14 02:10:08;;;;;;;12.70;8.73;;;;;;;11.63;100.00;102029.16;4992952;28;20054;-77
2023/05/14 02:12:36;;;;;;;14.27;7.70;;;;;;;11.62;100.00;102019.44;5010791;28;20054;-78
2023/05/14 02:15:03;;;;;;;15.77;8.75;;;;;;;11.62;100.00;102022.94;4986244;28;20064;-78
2023/05/14 02:17:31;;;;;;;11.85;8.30;;;;;;;11.62;100.00;102025.59;4989461;28;21272;-78
2023/05/14 02:19:59;;;;;;;12.93;7.32;;;;;;;11.63;100.00;102022.09;5017286;28;20057;-78
2023/05/14 02:22:26;;;;;;;14.90;7.65;;;;;;;11.65;100.00;102014.22;4983428;28;20041;-78
2023/05/14 02:24:54;;;;;;;17.02;7.95;;;;;;;11.66;100.00;102008.06;4970335;28;20054;-78
2023/05/14 02:27:22;;;;;;;14.25;7.78;;;;;;;11.66;100.00;102008.97;5010823;28;20037;-79
2023/05/14 02:29:49;;;;;;;15.85;7.28;;;;;;;11.67;100.00;102013.38;5001859;28;20041;-79
2023/05/14 02:32:16;;;;;;;11.15;6.43;;;;;;;11.69;100.00;102008.13;5031676;28;20057;-78
2023/05/14 02:34:45;;;;;;;11.95;6.25;;;;;;;11.67;100.00;102008.09;5004290;28;20057;-78
2023/05/14 02:37:12;;;;;;;14.63;6.70;;;;;;;11.66;100.00;102002.78;5015511;28;20053;-78
2023/05/14 02:39:39;;;;;;;19.35;6.50;;;;;;;11.65;100.00;102006.28;4980644;28;20045;-79
2023/05/14 02:42:07;;;;;;;12.38;5.82;;;;;;;11.66;100.00;102000.13;5015367;28;20057;-78
2023/05/14 02:44:34;;;;;;;14.98;5.95;;;;;;;11.69;100.00;101997.56;4989127;28;20088;-79
2023/05/14 02:47:01;;;;;;;14.45;5.88;;;;;;;11.72;100.00;102000.25;5002458;28;20072;-79
2023/05/14 02:49:29;;;;;;;14.85;6.43;;;;;;;11.74;100.00;102002.91;4988446;28;20049;-79
2023/05/14 02:51:57;;;;;;;15.05;6.68;;;;;;;11.79;100.00;101993.31;5030587;28;20050;-79
2023/05/14 02:54:24;;;;;;;19.25;6.65;;;;;;;11.81;100.00;101994.22;4955450;28;20054;-78
2023/05/14 02:57:00;;;;;;;22.13;7.13;;;;;;;11.83;100.00;101995.13;4989244;28;20459;-79
2023/05/14 02:59:27;;;;;;;14.65;6.03;;;;;;;11.84;100.00;101989.88;4994872;28;20129;-79
2023/05/14 03:01:55;;;;;;;17.05;6.40;;;;;;;11.84;100.00;101981.97;4978166;28;20044;-79
2023/05/14 03:04:23;;;;;;;17.50;6.43;;;;;;;11.83;100.00;101982.84;5010941;28;20057;-79
2023/05/14 03:06:50;;;;;;;14.98;5.45;;;;;;;11.85;100.00;101972.28;4984354;28;20542;-78
2023/05/14 03:09:18;;;;;;;17.73;6.60;;;;;;;11.86;100.00;101968.78;4993962;28;20419;-79
2023/05/14 03:11:46;;;;;;;19.50;6.78;;;;;;;11.87;100.00;101970.53;4946143;28;20045;-79
2023/05/14 03:14:13;;;;;;;18.55;6.07;;;;;;;11.87;100.00;101974.09;4971835;28;20050;-79
2023/05/14 03:16:41;;;;;;;19.02;8.00;;;;;;;11.89;100.00;101974.13;5006847;28;20050;-78
2023/05/14 03:19:08;;;;;;;24.27;7.82;;;;;;;11.88;100.00;101967.06;4983480;28;20042;-79
2023/05/14 03:21:36;;;;;;;18.77;8.25;;;;;;;11.88;100.00;101964.41;4984369;28;20046;-78
2023/05/14 03:24:04;;;;;;;19.83;7.45;;;;;;;11.89;100.00;101966.22;5014118;28;20740;-78
2023/05/14 03:26:31;;;;;;;19.73;7.55;;;;;;;11.88;100.00;101954.72;4962316;28;20038;-78
2023/05/14 03:29:01;;;;;;;19.88;8.00;;;;;;;11.88;100.00;101953.84;5023868;28;20785;-78
2023/05/14 03:31:30;;;;;;;17.77;8.25;;;;;;;11.87;100.00;101954.69;4998115;28;20419;-79
2023/05/14 03:34:00;;;;;;;19.50;7.88;;;;;;;11.85;100.00;101957.34;5006416;28;20045;-80
2023/05/14 03:36:28;;;;;;;21.02;8.25;;;;;;;11.86;100.00;101955.59;4992439;28;20042;-80
2023/05/14 03:38:57;;;;;;;18.63;8.00;;;;;;;11.85;100.00;101948.50;5013494;28;20041;-81
2023/05/14 03:41:25;;;;;;;22.45;8.75;;;;;;;11.84;100.00;101947.63;4975011;28;20045;-80
2023/05/14 03:43:52;;;;;;;20.15;9.23;;;;;;;11.85;100.00;101951.16;5004388;28;20391;-78
2023/05/14 03:46:20;;;;;;;21.45;8.93;;;;;;;11.83;100.00;101945.88;5016307;28;20522;-80
2023/05/14 03:48:47;;;;;;;19.55;9.57;;;;;;;11.81;100.00;101955.50;4998923;28;20068;-80
2023/05/14 03:51:15;;;;;;;24.50;8.88;;;;;;;11.80;100.00;101955.50;5017235;28;20464;-79
2023/05/14 03:53:43;;;;;;;18.15;8.70;;;;;;;11.77;100.00;101948.38;4990716;28;20057;-78
2023/05/14 03:56:13;;;;;;;19.05;9.40;;;;;;;11.77;100.00;101944.88;4974172;28;20812;-81
2023/05/14 03:58:41;;;;;;;19.60;10.18;;;;;;;11.77;100.00;101948.38;5006244;28;20049;-79
2023/05/14 04:01:09;;;;;;;22.08;10.05;;;;;;;11.78;100.00;101952.81;4962529;28;20041;-80
2023/05/14 04:03:36;;;;;;;20.30;9.52;;;;;;;11.77;100.00;101945.75;5000475;28;20046;-80
2023/05/14 04:06:04;;;;;;;22.35;10.68;;;;;;;11.78;100.00;101947.53;5023819;28;20064;-78
2023/05/14 04:08:34;;;;;;;21.47;11.33;;;;;;;11.78;100.00;101941.38;4977824;28;20042;-79
2023/05/14 04:11:01;;;;;;;16.58;10.13;;;;;;;11.78;100.00;101949.31;4998720;28;20057;-78
2023/05/14 04:13:29;;;;;;;15.60;9.57;;;;;;;11.78;100.00;101951.94;4999537;28;20057;-78
2023/05/14 04:15:57;;;;;;;18.80;9.35;;;;;;;11.79;100.00;101958.97;4980909;28;20065;-78
2023/05/14 04:18:24;;;;;;;18.85;9.45;;;;;;;11.80;100.00;101966.06;5012839;28;20499;-79
2023/05/14 04:20:51;;;;;;;18.15;9.73;;;;;;;11.83;100.00;101952.88;4999065;28;20060;-79
2023/05/14 04:23:20;;;;;;;24.33;10.90;;;;;;;11.84;100.00;101959.97;4983669;28;21414;-80
2023/05/14 04:25:48;;;;;;;20.55;10.07;;;;;;;11.86;100.00;101960.88;4983369;28;20410;-80
2023/05/14 04:28:15;;;;;;;17.02;10.70;;;;;;;11.88;100.00;101956.50;4952605;28;20049;-79
2023/05/14 04:30:42;;;;;;;22.52;12.35;;;;;;;11.90;100.00;101952.16;4965033;28;20050;-79
2023/05/14 04:33:09;;;;;;;22.05;10.70;;;;;;;11.94;100.00;101959.25;5007126;28;20479;-78
2023/05/14 04:35:37;;;;;;;16.98;9.98;;;;;;;11.96;100.00;101954.88;5017915;28;20053;-79
2023/05/14 04:38:04;;;;;;;16.30;10.73;;;;;;;12.00;100.00;101962.00;4998642;28;20060;-80
2023/05/14 04:40:32;;;;;;;15.35;9.88;;;;;;;12.07;100.00;101960.34;5039286;28;20471;-79
2023/05/14 04:42:59;;;;;;;20.20;9.88;;;;;;;12.15;100.00;101963.97;4941837;28;20053;-79
2023/05/14 04:45:26;;;;;;;24.25;10.27;;;;;;;12.25;100.00;101967.66;4992999;28;20481;-80
2023/05/14 04:47:55;;;;;;;21.40;9.50;;;;;;;12.35;100.00;101963.38;4988195;28;20038;-79
2023/05/14 04:50:22;;;;;;;16.35;8.40;;;;;;;12.45;100.00;101963.50;5013518;28;20064;-79
2023/05/14 04:52:50;;;;;;;17.13;8.60;;;;;;;12.59;100.00;101968.06;5018060;28;20064;-80
2023/05/14 04:55:17;;;;;;;11.15;8.05;;;;;;;12.72;100.00;101972.69;4958557;28;20042;-79
2023/05/14 04:57:46;;;;;;;15.25;8.73;;;;;;;12.84;100.00;101958.72;4943224;28;20119;-79
2023/05/14 05:00:14;;;;;;;13.27;7.22;;;;;;;12.90;100.00;101955.25;5014080;28;20064;-79
2023/05/14 05:02:42;;;;;;;19.92;6.90;;;;;;;12.97;100.00;101955.31;5019694;28;20064;-79
2023/05/14 05:05:09;;;;;;;15.30;6.10;;;;;;;13.04;100.00;101954.53;4984566;28;20499;-79
2023/05/14 05:07:37;;;;;;;17.25;6.70;;;;;;;13.11;100.00;101954.59;5015501;28;20499;-79
2023/05/14 05:10:05;;;;;;;13.75;5.57;;;;;;;13.16;100.00;101958.19;4988164;28;20060;-79
2023/05/14 05:12:34;;;;;;;16.17;6.25;;;;;;;13.17;100.00;101960.81;4973959;28;20069;-79
2023/05/14 05:15:02;;;;;;;11.68;5.90;;;;;;;13.17;100.00;101954.63;5021963;28;20085;-79
2023/05/14 05:17:29;;;;;;;14.02;6.03;;;;;;;13.18;100.00;101957.31;5022675;28;20057;-79
2023/05/14 05:19:57;;;;;;;13.15;6.03;;;;;;;13.17;100.00;101958.16;5015278;28;20037;-78
2023/05/14 05:22:24;;;;;;;13.25;6.68;;;;;;;13.19;100.00;101952.91;5016435;28;20053;-79
2023/05/14 05:24:52;;;;;;;17.35;7.38;;;;;;;13.20;100.00;101958.22;5004176;28;20065;-78
2023/05/14 05:27:20;;;;;;;16.90;7.05;;;;;;;13.17;100.00;101968.75;5000640;28;20057;-78
2023/05/14 05:29:48;;;;;;;17.48;7.57;;;;;;;13.17;100.00;101958.16;5004904;28;20394;-78
2023/05/14 05:32:17;;;;;;;20.50;7.05;;;;;;;13.18;100.00;101967.91;5017698;28;20046;-80
2023/05/14 05:34:45;;;;;;;15.85;6.63;;;;;;;13.18;100.00;101956.44;4993656;28;20080;-80
2023/05/14 05:37:13;;;;;;;17.42;6.25;;;;;;;13.19;100.00;101959.06;5034559;28;20045;-78
2023/05/14 05:39:41;;;;;;;15.55;6.75;;;;;;;13.20;100.00;101958.22;5008041;28;20053;-80
2023/05/14 05:42:10;;;;;;;16.33;5.70;;;;;;;13.18;100.00;101962.59;5016576;28;20137;-79
2023/05/14 05:44:38;;;;;;;14.73;6.30;;;;;;;13.15;100.00;101967.84;4956404;28;20057;-80
2023/05/14 05:47:06;;;;;;;17.55;6.07;;;;;;;13.14;100.00;101959.91;4981198;28;20049;-78
2023/05/14 05:49:35;;;;;;;15.65;5.50;;;;;;;13.15;100.00;101969.63;4999551;28;20050;-81
2023/05/14 05:52:03;;;;;;;13.43;6.28;;;;;;;13.14;100.00;101960.81;5000039;28;20053;-80
2023/05/14 05:54:33;;;;;;;13.35;5.38;;;;;;;13.16;100.00;101967.00;4991323;28;20050;-79
2023/05/14 05:57:00;;;;;;;21.92;5.97;;;;;;;13.15;100.00;101964.31;5010902;28;20042;-80
2023/05/14 05:59:28;;;;;;;17.55;5.93;;;;;;;13.13;100.00;101972.25;4970918;28;20048;-79
2023/05/14 06:02:00;;;;;;;12.63;5.60;;;;;;;13.16;100.00;101967.00;4981393;28;20049;-80
2023/05/14 06:04:28;;;;;;;14.35;5.63;;;;;;;13.21;100.00;101962.66;4988522;28;20045;-79
2023/05/14 06:06:57;;;;;;;12.52;5.53;;;;;;;13.26;100.00;101960.03;5013597;28;20056;-80
2023/05/14 06:09:24;;;;;;;13.50;5.82;;;;;;;13.27;100.00;101956.53;5014765;28;20053;-79
2023/05/14 06:11:52;;;;;;;14.52;5.97;;;;;;;13.29;100.00;101967.09;4969690;28;20575;-80
2023/05/14 06:14:20;;;;;;;14.43;5.30;;;;;;;13.30;100.00;101966.25;4983454;28;20062;-79
2023/05/14 06:16:48;;;;;;;12.60;5.47;;;;;;;13.31;100.00;101968.94;4972414;28;20053;-79
2023/05/14 06:19:15;;;;;;;16.85;6.55;;;;;;;13.32;100.00;101970.69;5016235;28;20061;-79
2023/05/14 06:21:49;;;;;;;20.00;5.93;;;;;;;13.37;100.00;101963.69;4975483;28;20129;-79
2023/05/14 06:24:18;;;;;;;16.55;6.05;;;;;;;13.45;100.00;101966.41;5016877;28;20053;-79
2023/05/14 06:26:47;;;;;;;14.90;5.53;;;;;;;13.56;100.00;101975.34;4972249;28;20844;-79
2023/05/14 06:29:14;;;;;;;20.73;6.47;;;;;;;13.64;100.00;101973.63;5013315;28;20509;-79
2023/05/14 06:31:42;;;;;;;13.48;6.35;;;;;;;13.71;100.00;101966.66;4955020;28;20053;-79
2023/05/14 06:34:10;;;;;;;12.82;5.35;;;;;;;13.75;100.00;101962.25;4991898;28;20545;-79
2023/05/14 06:36:37;;;;;;;14.43;6.00;;;;;;;13.78;100.00;101954.31;5003153;28;20048;-80
2023/05/14 06:39:05;;;;;;;16.27;5.60;;;;;;;13.82;100.00;101956.16;5011702;28;20038;-79
2023/05/14 06:41:33;;;;;;;12.27;5.60;;;;;;;13.91;100.00;101955.31;5015512;28;20093;-79
2023/05/14 06:44:00;;;;;;;11.90;5.13;;;;;;;13.93;100.00;101954.47;5011569;28;20068;-79
2023/05/14 06:46:27;;;;;;;7.97;4.88;;;;;;;13.95;100.00;101962.41;4985061;28;20046;-79
2023/05/14 06:48:55;;;;;;;12.25;5.60;;;;;;;13.99;100.00;101962.44;4974166;28;20053;-78
2023/05/14 06:51:25;;;;;;;13.15;5.43;;;;;;;14.03;100.00;101966.88;5007423;28;20057;-78
2023/05/14 06:53:54;;;;;;;11.48;4.85;;;;;;;14.08;100.00;101966.03;5031600;28;20053;-79
2023/05/14 06:56:22;;;;;;;14.63;5.95;;;;;;;14.12;100.00;101954.56;5018844;28;20042;-79
2023/05/14 06:58:49;;;;;;;9.00;4.45;;;;;;;14.21;100.00;101949.31;4986772;28;20798;-79
2023/05/14 07:01:17;;;;;;;14.38;4.63;;;;;;;14.32;100.00;101946.72;5013244;28;20083;-79
2023/05/14 07:03:46;;;;;;;8.73;4.50;;;;;;;14.36;100.00;101954.69;4977113;28;20476;-79
2023/05/14 07:06:13;;;;;;;9.35;5.22;;;;;;;14.38;100.00;101966.19;5000381;28;20058;-78
2023/05/14 07:08:41;;;;;;;11.00;4.55;;;;;;;14.37;100.00;101972.41;4956520;28;20053;-78
2023/05/14 07:11:08;;;;;;;9.55;4.57;;;;;;;14.36;100.00;101967.94;4984916;28;20053;-79
2023/05/14 07:13:36;;;;;;;9.80;4.97;;;;;;;14.41;100.00;101958.25;5024836;28;20060;-78
2023/05/14 07:16:04;;;;;;;12.82;5.50;;;;;;;14.48;100.00;101943.28;4985867;28;20053;-79
2023/05/14 07:18:31;;;;;;;11.43;5.18;;;;;;;14.55;100.00;101955.66;4987730;28;20049;-78
2023/05/14 07:20:59;;;;;;;12.23;5.22;;;;;;;14.60;100.00;101969.00;5001793;28;20053;-78
2023/05/14 07:23:26;;;;;;;11.77;6.00;;;;;;;14.62;100.00;101946.03;4968544;28;20046;-78
2023/05/14 07:25:55;;;;;;;8.13;5.20;;;;;;;14.67;100.00;101949.59;4991414;28;20061;-78
2023/05/14 07:28:23;;;;;;;13.05;5.97;;;;;;;14.72;100.00;101961.06;5003016;28;20368;-78
2023/05/14 07:30:50;;;;;;;9.60;5.60;;;;;;;14.74;100.00;101955.78;4985061;28;20046;-78
2023/05/14 07:33:18;;;;;;;8.88;6.00;;;;;;;14.81;100.00;101950.50;4997503;28;20084;-79
2023/05/14 07:35:46;;;;;;;8.25;5.97;;;;;;;14.90;100.00;101967.34;4959697;28;20061;-79
2023/05/14 07:38:13;;;;;;;11.82;6.25;;;;;;;14.82;100.00;101952.28;4983149;28;20062;-79
2023/05/14 07:40:40;;;;;;;12.63;6.10;;;;;;;14.85;100.00;101943.44;4964226;28;20046;-78
2023/05/14 07:43:09;;;;;;;9.82;6.90;;;;;;;14.90;100.00;101948.78;4986440;28;20049;-78
2023/05/14 07:45:38;;;;;;;11.38;6.07;;;;;;;14.94;100.00;101955.84;4994641;28;20047;-81
2023/05/14 07:48:05;;;;;;;12.40;6.60;;;;;;;15.00;100.00;101948.78;5025653;28;20055;-78
2023/05/14 07:50:32;;;;;;;12.35;7.03;;;;;;;15.05;100.00;101947.91;4967396;28;20046;-78
2023/05/14 07:53:00;;;;;;;11.85;7.00;;;;;;;15.17;100.00;101950.59;4971880;28;20053;-79
2023/05/14 07:55:27;;;;;;;11.57;6.07;;;;;;;15.34;100.00;101953.28;4996982;28;20046;-78
2023/05/14 07:57:55;;;;;;;9.82;5.72;;;;;;;15.51;100.00;101946.19;5002783;28;20038;-79
2023/05/14 08:00:22;;;;;;;14.27;6.55;;;;;;;15.63;100.00;101941.78;4963643;28;20598;-80
2023/05/14 08:02:50;;;;;;;14.82;6.10;;;;;;;15.68;100.00;101951.50;5009989;28;20038;-80
2023/05/14 08:05:18;;;;;;;11.85;6.45;;;;;;;15.75;100.00;101940.03;4963065;28;20054;-80
2023/05/14 08:07:46;;;;;;;9.68;5.80;;;;;;;15.85;100.00;101937.38;4996920;28;20407;-79
2023/05/14 08:10:13;;;;;;;8.75;5.80;;;;;;;15.89;100.00;101945.31;5002744;28;20034;-78
2023/05/14 08:12:41;;;;;;;7.07;6.38;;;;;;;15.89;100.00;101944.44;4991430;28;20046;-81
2023/05/14 08:15:09;;;;;;;14.77;6.78;;;;;;;15.94;100.00;101934.69;4992349;28;20094;-80
2023/05/14 08:17:36;;;;;;;13.57;6.63;;;;;;;16.05;100.00;101945.28;4970801;28;20056;-81
2023/05/14 08:20:06;;;;;;;11.90;6.35;;;;;;;16.10;100.00;101957.69;5004697;28;20044;-79
2023/05/14 08:22:33;;;;;;;10.40;5.82;;;;;;;16.15;100.00;101949.72;4969483;28;20064;-81
2023/05/14 08:25:02;;;;;;;10.45;6.68;;;;;;;16.24;100.00;101938.16;4988941;28;20090;-80
2023/05/14 08:27:29;;;;;;;14.90;6.90;;;;;;;16.30;100.00;101947.00;4980771;28;20049;-78
2023/05/14 08:29:57;;;;;;;11.40;6.97;;;;;;;16.35;100.00;101939.91;5032721;28;20049;-80
2023/05/14 08:32:24;;;;;;;9.05;7.25;;;;;;;16.37;100.00;101943.44;4941304;28;20045;-80
2023/05/14 08:34:51;;;;;;;8.48;7.13;;;;;;;16.40;100.00;101944.31;4998008;28;20056;-80
2023/05/14 08:37:19;;;;;;;7.85;6.95;;;;;;;16.37;100.00;101939.91;4958816;28;20066;-80
2023/05/14 08:39:47;;;;;;;12.27;7.60;;;;;;;16.44;100.00;101952.28;4987529;28;20069;-80
2023/05/14 08:42:20;;;;;;;11.57;7.43;;;;;;;16.55;100.00;101939.81;4993788;28;20061;-79
2023/05/14 08:44:52;;;;;;;9.52;6.72;;;;;;;16.56;100.00;101944.25;5013239;28;20069;-80
2023/05/14 08:47:20;;;;;;;10.40;6.82;;;;;;;16.52;100.00;101936.28;4980315;28;20053;-80
2023/05/14 08:50:04;;;;;;;10.20;7.05;;;;;;;16.38;100.00;101939.00;5001606;28;20046;-79
2023/05/14 08:52:32;;;;;;;7.28;5.90;;;;;;;16.42;100.00;101932.78;4949263;28;20050;-80
2023/05/14 08:55:03;;;;;;;7.53;6.20;;;;;;;16.48;100.00;101934.53;5024465;28;20050;-80
2023/05/14 08:57:34;;;;;;;9.30;5.95;;;;;;;16.55;100.00;101933.63;5017713;28;20058;-80
2023/05/14 09:00:12;;;;;;;7.35;5.50;;;;;;;16.68;100.00;101935.34;5011848;28;20078;-83
2023/05/14 09:02:40;;;;;;;9.73;6.50;;;;;;;16.75;100.00;101929.09;4995919;28;20077;-79
2023/05/14 09:05:08;;;;;;;9.63;5.57;;;;;;;16.82;100.00;101931.72;4986891;28;20038;-80
2023/05/14 09:07:37;;;;;;;9.82;5.00;;;;;;;16.83;100.00;101925.53;4974155;28;22392;-81
2023/05/14 09:10:05;;;;;;;7.05;4.72;;;;;;;16.86;100.00;101929.06;4984678;28;20039;-79
2023/05/14 09:12:33;;;;;;;9.68;5.50;;;;;;;16.90;100.00;101924.59;5030597;28;20046;-78
2023/05/14 09:15:05;;;;;;;6.60;4.88;;;;;;;16.99;100.00;101911.22;5011828;28;20069;-79
2023/05/14 09:17:33;;;;;;;8.65;4.82;;;;;;;17.05;100.00;101916.53;4990599;28;20050;-80
2023/05/14 09:20:03;;;;;;;6.85;4.68;;;;;;;17.07;100.00;101914.75;4964646;28;20073;-77
2023/05/14 09:22:31;;;;;;;9.20;5.25;;;;;;;17.10;100.00;101914.69;4955286;28;20049;-81
2023/05/14 09:25:08;;;;;;;4.70;4.05;;;;;;;17.15;100.00;101910.22;4990905;28;20067;-81
2023/05/14 09:27:35;;;;;;;8.48;4.07;;;;;;;17.28;100.00;101911.03;5007180;28;20054;-80
2023/05/14 09:30:10;;;;;;;4.70;3.47;;;;;;;17.40;100.00;101907.38;5010875;28;20053;-77
2023/05/14 09:32:42;;;;;;;6.90;3.75;;;;;;;17.58;100.00;101908.09;4983747;28;20053;-77
2023/05/14 09:35:16;;;;;;;8.93;3.90;;;;;;;17.70;100.00;101898.22;4961166;28;20069;-84
2023/05/14 09:37:49;;;;;;;5.43;3.35;;;;;;;17.83;99.62;101911.44;5012940;28;20050;-81
2023/05/14 09:40:21;;;;;;;11.30;3.30;;;;;;;17.90;97.84;101897.16;4981889;28;20042;-81
2023/05/14 09:42:49;;;;;;;5.38;3.22;;;;;;;17.92;96.55;101898.94;5011334;28;20061;-82
2023/05/14 09:45:17;;;;;;;6.43;3.58;;;;;;;17.99;93.94;101896.19;4991236;28;20058;-80
2023/05/14 09:47:45;;;;;;;4.03;3.15;;;;;;;18.05;91.25;101898.78;5011869;28;20515;-81
2023/05/14 09:50:13;;;;;;;7.03;3.92;;;;;;;18.14;90.60;101885.34;4982930;28;20049;-81
2023/05/14 09:52:41;;;;;;;7.15;3.20;;;;;;;18.27;90.25;101886.97;5008152;28;20053;-82
2023/05/14 09:55:08;;;;;;;5.97;3.15;;;;;;;18.46;88.94;101876.06;4945509;28;20061;-83
2023/05/14 09:57:36;;;;;;;5.78;3.00;;;;;;;18.64;85.88;101878.47;5013967;28;20042;-84
2023/05/14 10:00:04;;;;;;;9.32;3.15;;;;;;;18.78;80.67;101878.28;5022662;28;20068;-83
2023/05/14 10:02:37;;;;;;;6.00;2.78;;;;;;;18.91;77.21;101876.34;5014033;28;20456;-83
2023/05/14 10:05:06;;;;;;;5.95;2.80;;;;;;;18.99;79.95;101874.44;4992334;28;20046;-83
2023/05/14 10:07:40;;;;;;;3.10;2.85;;;;;;;19.07;77.34;101872.53;5008186;28;20046;-83
2023/05/14 10:10:11;;;;;;;7.00;3.40;;;;;;;19.17;80.30;101877.72;4967257;28;22598;-81
2023/05/14 10:12:40;;;;;;;7.20;3.17;;;;;;;19.31;82.34;101874.84;5028918;28;20057;-81
2023/05/14 10:15:22;;;;;;;8.57;3.63;;;;;;;19.43;80.75;101867.50;5009601;28;20041;-81
2023/05/14 10:17:57;;;;;;;5.63;3.47;;;;;;;19.55;80.48;101871.72;5028361;28;20054;-80
2023/05/14 10:20:27;;;;;;;5.72;3.80;;;;;;;19.66;82.08;101875.09;4996863;28;20065;-81
2023/05/14 10:22:55;;;;;;;6.55;3.60;;;;;;;19.71;81.76;101869.66;4993952;28;20058;-80
2023/05/14 10:25:23;;;;;;;6.05;3.50;;;;;;;19.67;82.34;101862.59;4972292;28;20061;-81
2023/05/14 10:27:50;;;;;;;7.30;3.67;;;;;;;19.64;83.18;101863.53;4947647;28;20062;-81
2023/05/14 10:30:21;;;;;;;5.60;3.72;;;;;;;19.72;81.63;101866.09;5009975;28;20054;-81
2023/05/14 10:33:05;;;;;;;6.18;3.95;;;;;;;19.77;82.09;101857.97;5010754;28;20057;-81
2023/05/14 10:35:58;;;;;;;6.93;3.42;;;;;;;19.82;83.53;101848.97;5033590;28;20398;-81
2023/05/14 10:38:32;;;;;;;4.85;3.80;;;;;;;19.90;83.99;101846.13;5042180;28;20054;-82
2023/05/14 10:41:02;;;;;;;7.80;4.18;;;;;;;19.94;83.85;101839.81;4974557;28;20140;-81
2023/05/14 10:43:35;;;;;;;;;;;;;;;19.97;80.79;101839.75;4997370;28;20049;-82
2023/05/14 10:46:03;;;;;;;5.78;3.92;;;;;;;19.96;84.98;101838.00;5003062;28;19925;-81
2023/05/14 10:48:32;;;;;;;6.53;4.15;;;;;;;20.05;84.38;101834.25;4979909;28;20046;-82
2023/05/14 10:51:01;;;;;;;7.63;4.57;;;;;;;20.16;83.63;101828.69;5007206;28;20053;-81
2023/05/14 10:53:41;;;;;;;4.85;4.20;;;;;;;20.23;86.24;101823.16;5000515;28;20057;-83
2023/05/14 10:56:11;;;;;;;7.53;4.78;;;;;;;20.23;82.57;101825.84;4940840;28;20049;-82
2023/05/14 10:58:43;;;;;;;5.70;4.25;;;;;;;20.20;84.69;101825.03;5006847;28;20053;-82
2023/05/14 11:01:12;;;;;;;6.47;4.13;;;;;;;20.22;84.15;101823.19;5000082;28;20034;-79
2023/05/14 11:03:44;;;;;;;8.90;4.78;;;;;;;20.33;84.45;101814.94;5005904;28;20053;-82
2023/05/14 11:06:14;;;;;;;7.43;3.58;;;;;;;20.42;83.39;101815.59;4976265;28;20104;-81
2023/05/14 11:08:43;;;;;;;5.10;4.00;;;;;;;20.52;79.59;101810.91;5471760;22;20041;-81
2023/05/14 11:11:11;;;;;;;9.40;4.82;;;;;;;20.53;80.30;101811.78;5016691;28;20033;-81
2023/05/14 11:13:40;;;;;;;11.65;4.22;;;;;;;20.54;82.29;101811.75;5021090;28;20065;-84
2023/05/14 11:16:08;;;;;;;8.55;4.53;;;;;;;20.62;78.64;101806.25;5017052;28;20567;-81
2023/05/14 11:18:59;;;;;;;9.23;4.90;;;;;;;20.59;77.03;101811.66;5044773;28;20052;-81
2023/05/14 11:21:26;;;;;;;6.70;3.92;;;;;;;20.71;80.55;101813.22;5022526;28;20060;-81